Time;durP1;ratioP1;P1;durP2;ratioP2;P2;SDS_P1;SDS_P2;PMS_P1;PMS_P2;Temp;Humidity;BMP_temperature;BMP_pressure;BME280_temperature;BME280_humidity;BME280_pressure;Samples;Min_cycle;Max_cycle;Signal;HPM_P1;HPM_P2
2022/02/27 00:00:49;;;;;;;32.93;20.27;;;;;;;0.80;80.48;97989.31;1665232;85;21073;-84
2022/02/27 00:03:19;;;;;;;28.38;17.77;;;;;;;0.81;80.52;97993.09;1684094;85;21064;-83
2022/02/27 00:05:53;;;;;;;25.80;16.90;;;;;;;0.83;80.95;97991.73;1643303;85;21473;-84
2022/02/27 00:11:31;;;;;;;41.45;24.18;;;;;;;0.87;80.68;97991.94;1462700;96;21096;-84
2022/02/27 00:14:02;;;;;;;43.08;26.30;;;;;;;0.87;80.59;97994.03;1593030;89;21094;-84
2022/02/27 00:16:33;;;;;;;25.65;16.90;;;;;;;0.89;80.48;97990.11;1631445;86;21041;-84
2022/02/27 00:18:59;;;;;;;36.53;21.82;;;;;;;0.94;80.40;97997.08;1665796;83;21023;-84
2022/02/27 00:21:29;;;;;;;34.35;23.30;;;;;;;0.96;80.30;97993.98;1689464;84;21016;-84
2022/02/27 00:23:59;;;;;;;37.05;24.27;;;;;;;0.92;80.30;97998.91;1687628;84;20973;-84
2022/02/27 00:26:25;;;;;;;37.10;22.27;;;;;;;0.86;80.24;98001.80;1689898;84;21013;-84
2022/02/27 00:28:51;;;;;;;32.73;20.52;;;;;;;0.82;80.17;97999.87;1714135;83;21053;-84
2022/02/27 00:31:17;;;;;;;28.55;20.12;;;;;;;0.83;80.20;98004.08;1709525;82;21429;-85
2022/02/27 00:33:43;;;;;;;32.15;18.75;;;;;;;0.81;80.16;98000.77;1669471;84;21391;-84
2022/02/27 00:36:09;;;;;;;31.82;19.42;;;;;;;0.80;80.08;98007.22;1690261;84;21045;-84
2022/02/27 00:38:40;;;;;;;32.48;18.77;;;;;;;0.72;80.16;98003.81;1663031;85;21427;-84
2022/02/27 00:41:06;;;;;;;23.75;17.07;;;;;;;0.72;80.17;98003.81;1688906;83;21440;-84
2022/02/27 00:43:32;;;;;;;26.77;17.90;;;;;;;0.74;80.07;98004.55;1689942;84;21022;-84
2022/02/27 00:45:57;;;;;;;26.40;19.85;;;;;;;0.75;79.95;98001.08;1688752;85;21075;-84
2022/02/27 00:48:23;;;;;;;34.10;22.35;;;;;;;0.75;79.87;98004.09;1664322;85;21461;-84
2022/02/27 00:50:54;;;;;;;32.88;20.05;;;;;;;0.71;80.06;98007.73;1692299;83;21511;-84
2022/02/27 00:53:20;;;;;;;29.45;20.00;;;;;;;0.64;80.07;98008.48;1689012;84;21002;-85
2022/02/27 00:55:46;;;;;;;29.65;20.45;;;;;;;0.62;80.03;98006.92;1700831;84;21369;-84
2022/02/27 00:58:12;;;;;;;29.20;20.08;;;;;;;0.62;80.32;98007.74;1701419;84;21034;-84
2022/02/27 01:00:37;;;;;;;32.08;22.17;;;;;;;0.62;80.27;98009.48;1688700;85;20989;-84
2022/02/27 01:03:55;;;;;;;31.33;22.05;;;;;;;0.60;80.27;97998.88;1688833;84;21042;-84
2022/02/27 01:06:16;;;;;;;30.12;19.65;;;;;;;0.60;80.29;98015.50;1561025;88;21066;-84
2022/02/27 01:08:42;;;;;;;32.33;21.05;;;;;;;0.56;80.38;98011.46;1678752;84;21137;-84
2022/02/27 01:11:10;;;;;;;31.27;20.15;;;;;;;0.55;80.48;98015.38;1696836;84;20970;-84
2022/02/27 01:14:02;;;;;;;32.45;21.17;;;;;;;0.55;80.48;98017.48;1700602;84;21082;-84
2022/02/27 01:16:28;;;;;;;35.45;21.93;;;;;;;0.46;80.63;98014.11;1705370;83;20986;-84
2022/02/27 01:18:56;;;;;;;42.95;25.68;;;;;;;0.37;80.87;98018.44;1700336;83;21016;-84
2022/02/27 01:21:22;;;;;;;40.48;26.33;;;;;;;0.30;81.61;98014.07;1715587;83;21412;-84
2022/02/27 01:23:48;;;;;;;43.42;27.10;;;;;;;0.24;81.70;98014.39;1699691;83;21007;-84
2022/02/27 01:26:14;;;;;;;36.10;25.30;;;;;;;0.25;81.63;98012.66;1705899;83;20999;-84
2022/02/27 01:28:40;;;;;;;41.88;25.70;;;;;;;0.25;81.26;98021.61;1699985;83;21055;-84
2022/02/27 01:31:07;;;;;;;39.80;25.27;;;;;;;0.28;81.48;98020.17;1702361;83;21014;-84
2022/02/27 01:33:34;;;;;;;39.85;25.12;;;;;;;0.27;81.27;98013.41;1713939;83;20984;-84
2022/02/27 01:36:00;;;;;;;39.83;24.67;;;;;;;0.27;81.28;98012.13;1709933;83;21059;-84
2022/02/27 01:38:26;;;;;;;41.55;27.17;;;;;;;0.25;81.26;98013.48;1703493;83;21422;-84
2022/02/27 01:40:51;;;;;;;47.50;29.70;;;;;;;0.21;81.45;98015.01;1697338;83;21008;-84
2022/02/27 01:43:17;;;;;;;45.83;31.05;;;;;;;0.18;81.48;98019.00;1703112;83;21023;-84
2022/02/27 01:45:43;;;;;;;49.03;30.68;;;;;;;0.17;81.54;98015.62;1701180;83;21034;-84
2022/02/27 01:48:08;;;;;;;52.23;31.68;;;;;;;0.18;81.56;98014.72;1716463;83;21280;-84
2022/02/27 01:50:34;;;;;;;48.48;30.48;;;;;;;0.16;81.71;98016.95;1709842;83;20943;-84
2022/02/27 01:53:05;;;;;;;45.58;30.02;;;;;;;0.16;81.55;98022.06;1704709;83;20991;-84
2022/02/27 01:55:31;;;;;;;49.75;30.77;;;;;;;0.15;81.47;98021.23;1680505;83;20979;-84
2022/02/27 01:57:57;;;;;;;47.35;31.40;;;;;;;0.13;81.28;98017.93;1709576;83;21082;-84
2022/02/27 02:00:23;;;;;;;59.95;34.15;;;;;;;0.13;81.31;98017.11;1698477;84;21095;-84
2022/02/27 02:02:48;;;;;;;63.10;37.67;;;;;;;0.11;81.51;98015.91;1708305;83;21103;-84
2022/02/27 02:05:14;;;;;;;62.80;36.95;;;;;;;0.09;81.65;98015.16;1698659;83;21399;-85
2022/02/27 02:07:41;;;;;;;57.05;34.20;;;;;;;0.10;81.67;98016.81;1705086;83;21043;-84
2022/02/27 02:10:07;;;;;;;69.77;43.50;;;;;;;0.12;81.64;98014.17;1700021;83;21452;-84
2022/02/27 02:12:33;;;;;;;74.85;46.70;;;;;;;0.12;81.61;98020.56;1709672;83;21009;-84
2022/02/27 02:14:59;;;;;;;72.27;49.65;;;;;;;0.13;81.83;98014.09;1723816;83;21055;-84
2022/02/27 02:17:26;;;;;;;88.78;52.60;;;;;;;0.15;82.02;98016.58;1711004;82;21016;-84
2022/02/27 02:19:53;;;;;;;96.25;54.73;;;;;;;0.17;82.37;98021.19;1702298;82;21497;-84
2022/02/27 02:22:19;;;;;;;97.60;57.88;;;;;;;0.20;82.49;98019.75;1707181;82;21043;-84
2022/02/27 02:24:45;;;;;;;106.47;64.40;;;;;;;0.23;82.74;98016.58;1700175;82;21088;-84
2022/02/27 02:27:11;;;;;;;107.12;63.83;;;;;;;0.23;82.79;98029.36;1700517;82;21106;-83
2022/02/27 02:29:37;;;;;;;106.32;63.58;;;;;;;0.24;82.98;98022.52;1702003;82;21050;-84
2022/02/27 02:32:03;;;;;;;119.60;69.25;;;;;;;0.26;82.98;98024.54;1709398;82;21368;-84
2022/02/27 02:34:29;;;;;;;111.55;69.60;;;;;;;0.21;82.74;98026.06;1700027;82;20972;-84
2022/02/27 02:36:55;;;;;;;116.05;75.40;;;;;;;0.23;82.89;98017.86;1696462;83;21039;-84
2022/02/27 02:39:23;;;;;;;118.37;69.67;;;;;;;0.27;82.94;98023.63;1701828;82;21022;-84
2022/02/27 02:41:49;;;;;;;117.20;70.22;;;;;;;0.30;82.86;98023.47;1701340;82;21082;-85
2022/02/27 02:44:15;;;;;;;122.35;71.57;;;;;;;0.32;82.89;98019.55;1700730;82;21018;-84
2022/02/27 02:46:41;;;;;;;107.00;67.42;;;;;;;0.29;82.92;98025.20;1706736;82;21069;-84
2022/02/27 02:49:08;;;;;;;110.05;67.12;;;;;;;0.33;83.17;98021.23;1700084;82;21088;-84
2022/02/27 02:51:34;;;;;;;123.67;73.37;;;;;;;0.37;83.22;98032.50;1702576;83;21043;-84
2022/02/27 02:54:00;;;;;;;117.50;71.50;;;;;;;0.43;83.13;98030.07;1703099;83;20997;-84
2022/02/27 02:56:41;;;;;;;119.80;73.07;;;;;;;0.45;83.21;98039.77;1703993;83;21377;-84
2022/02/27 02:59:07;;;;;;;121.92;73.47;;;;;;;0.42;83.29;98039.92;1700488;83;21430;-84
2022/02/27 03:01:33;;;;;;;119.55;74.72;;;;;;;0.37;83.25;98038.06;1724162;82;21009;-84
2022/02/27 03:04:00;;;;;;;115.40;72.53;;;;;;;0.37;83.26;98040.17;1703054;83;21009;-83
2022/02/27 03:06:25;;;;;;;118.77;71.20;;;;;;;0.41;83.43;98039.55;1702456;83;21004;-84
2022/02/27 03:08:52;;;;;;;114.10;70.00;;;;;;;0.41;83.49;98035.27;1721052;83;21052;-83
2022/02/27 03:11:21;;;;;;;106.87;62.48;;;;;;;0.46;83.72;98039.68;1704165;83;21014;-84
2022/02/27 03:13:48;;;;;;;101.67;59.23;;;;;;;0.50;83.74;98038.64;1704585;83;21123;-84
2022/02/27 03:16:14;;;;;;;94.60;58.10;;;;;;;0.52;83.80;98036.83;1718714;82;21062;-84
2022/02/27 03:18:40;;;;;;;110.17;67.05;;;;;;;0.56;83.77;98040.88;1740103;81;21580;-84
2022/02/27 03:21:06;;;;;;;105.22;66.72;;;;;;;0.57;83.70;98042.98;1731822;81;21435;-84
2022/02/27 03:23:32;;;;;;;101.33;62.45;;;;;;;0.58;83.63;98048.02;1742289;81;21009;-84
2022/02/27 03:25:58;;;;;;;111.95;66.20;;;;;;;0.53;83.68;98047.44;1752430;81;21007;-84
2022/02/27 03:28:25;;;;;;;88.92;54.40;;;;;;;0.54;83.78;98048.26;1723641;81;21011;-84
2022/02/27 03:30:51;;;;;;;96.50;60.65;;;;;;;0.57;83.98;98040.42;1728586;81;21019;-84
2022/02/27 03:33:17;;;;;;;108.07;64.85;;;;;;;0.58;83.84;98046.73;1733463;81;22032;-84
2022/02/27 03:35:43;;;;;;;100.45;64.77;;;;;;;0.58;83.80;98050.57;1749682;81;20997;-84
2022/02/27 03:38:08;;;;;;;89.13;56.58;;;;;;;0.56;83.88;98045.16;1756153;81;21334;-84
2022/02/27 03:40:54;;;;;;;87.47;54.25;;;;;;;0.56;83.99;98040.88;1750135;81;20962;-84
2022/02/27 03:43:18;;;;;;;81.63;49.08;;;;;;;0.55;83.97;98039.67;1706113;83;21575;-84
2022/02/27 03:45:48;;;;;;;76.65;46.70;;;;;;;0.63;83.81;98049.05;1725091;81;21421;-84
2022/02/27 03:48:14;;;;;;;80.38;51.20;;;;;;;0.37;83.64;98013.32;1732007;82;21057;-84
2022/02/27 03:50:40;;;;;;;76.47;44.60;;;;;;;0.58;83.64;98048.02;1744749;81;21070;-84
2022/02/27 03:53:05;;;;;;;73.52;46.30;;;;;;;0.55;83.75;98046.90;1734892;82;20993;-84
2022/02/27 03:55:31;;;;;;;64.92;41.75;;;;;;;0.51;83.68;98047.14;1732086;81;21072;-84
2022/02/27 03:57:57;;;;;;;67.03;42.23;;;;;;;0.51;83.70;98049.25;1689697;81;21146;-84
2022/02/27 04:00:24;;;;;;;67.27;42.90;;;;;;;0.58;83.66;98053.58;1700642;83;21051;-83
2022/02/27 04:02:50;;;;;;;72.27;45.58;;;;;;;0.60;83.59;98051.31;1727482;81;21358;-84
2022/02/27 04:05:17;;;;;;;73.72;47.35;;;;;;;0.59;83.51;98045.83;1743773;81;20985;-84
2022/02/27 04:08:08;;;;;;;77.03;45.23;;;;;;;0.60;83.49;98040.26;1729431;81;20958;-84
2022/02/27 04:10:45;;;;;;;62.67;39.38;;;;;;;0.64;83.53;98039.64;1719848;81;21024;-84
2022/02/27 04:13:11;;;;;;;72.45;48.85;;;;;;;0.63;83.09;98034.98;1725473;82;21025;-84
2022/02/27 04:15:37;;;;;;;70.15;46.42;;;;;;;0.54;82.91;98033.73;1736559;82;21046;-84
2022/02/27 04:18:03;;;;;;;66.95;43.00;;;;;;;0.49;82.97;98026.77;1725395;81;21082;-84
2022/02/27 04:20:28;;;;;;;70.62;43.90;;;;;;;0.44;82.71;98026.16;1723833;81;21055;-84
2022/02/27 04:22:54;;;;;;;62.13;41.65;;;;;;;0.39;82.17;98040.09;1734825;82;21131;-83
2022/02/27 04:25:20;;;;;;;59.33;37.93;;;;;;;0.39;82.17;98040.09;1737875;81;21054;-84
2022/02/27 04:27:46;;;;;;;54.75;35.68;;;;;;;0.36;82.35;98033.41;1726078;82;21324;-84
2022/02/27 04:30:13;;;;;;;42.13;26.45;;;;;;;0.33;82.38;98034.84;1722462;82;21121;-84
2022/02/27 04:32:38;;;;;;;60.23;37.45;;;;;;;0.25;82.62;98035.67;1731263;81;21494;-84
2022/02/27 04:35:05;;;;;;;54.50;34.20;;;;;;;0.17;82.48;98046.30;1733820;82;21068;-84
2022/02/27 04:37:31;;;;;;;59.08;36.17;;;;;;;0.17;82.53;98044.19;1727524;81;20974;-84
2022/02/27 04:39:57;;;;;;;57.27;35.33;;;;;;;0.17;82.60;98036.52;1747237;82;20984;-84
2022/02/27 04:42:22;;;;;;;56.88;36.73;;;;;;;0.14;82.56;98040.48;1737636;81;21366;-84
2022/02/27 04:44:48;;;;;;;58.28;35.50;;;;;;;0.11;82.49;98038.91;1749553;82;20968;-84
2022/02/27 04:47:14;;;;;;;51.63;35.33;;;;;;;0.12;82.46;98031.62;1732964;81;21103;-84
2022/02/27 04:49:40;;;;;;;59.60;36.35;;;;;;;0.17;82.59;98033.97;1723123;82;21492;-85
2022/02/27 04:52:06;;;;;;;59.20;34.85;;;;;;;0.21;82.69;98037.56;1744639;81;21028;-84
2022/02/27 04:54:32;;;;;;;55.65;34.33;;;;;;;0.24;82.70;98034.02;1728608;81;20984;-84
2022/02/27 04:56:58;;;;;;;57.15;36.08;;;;;;;0.26;82.65;98037.32;1730676;82;21473;-84
2022/02/27 04:59:23;;;;;;;56.63;35.50;;;;;;;0.30;82.74;98039.64;1729265;82;21082;-84
2022/02/27 05:01:49;;;;;;;54.35;35.50;;;;;;;0.35;82.74;98039.88;1714030;82;21082;-84
2022/02/27 05:04:15;;;;;;;65.20;39.45;;;;;;;0.39;82.79;98049.04;1693033;83;21002;-84
2022/02/27 05:06:41;;;;;;;67.32;39.33;;;;;;;0.41;82.78;98049.33;1716944;83;21013;-84
2022/02/27 05:09:07;;;;;;;58.95;38.02;;;;;;;0.42;82.69;98049.70;1701967;83;21025;-84
2022/02/27 05:11:32;;;;;;;58.20;38.42;;;;;;;0.46;82.59;98047.81;1711203;83;21472;-84
2022/02/27 05:13:58;;;;;;;58.83;36.95;;;;;;;0.48;82.43;98054.95;1724683;83;21004;-84
2022/02/27 05:16:24;;;;;;;63.15;38.33;;;;;;;0.49;82.26;98056.63;1738976;81;21031;-84
2022/02/27 05:18:50;;;;;;;58.38;36.70;;;;;;;0.46;82.14;98055.48;1729841;81;21102;-84
2022/02/27 05:21:16;;;;;;;64.35;38.63;;;;;;;0.45;82.10;98056.39;1732788;82;21019;-84
2022/02/27 05:23:42;;;;;;;63.80;38.65;;;;;;;0.43;81.79;98064.14;1731694;82;20940;-84
2022/02/27 05:26:08;;;;;;;60.35;38.50;;;;;;;0.41;81.69;98059.56;1705108;83;20911;-84
2022/02/27 05:28:33;;;;;;;66.85;39.50;;;;;;;0.39;81.53;98061.38;1744190;81;21063;-84
2022/02/27 05:30:59;;;;;;;62.43;39.53;;;;;;;0.34;81.56;98063.34;1727189;81;21080;-83
2022/02/27 05:33:25;;;;;;;67.58;39.50;;;;;;;0.32;81.47;98070.69;1727886;82;21037;-84
2022/02/27 05:35:51;;;;;;;70.30;42.48;;;;;;;0.23;81.45;98067.70;1721479;81;21006;-84
2022/02/27 05:38:18;;;;;;;61.05;39.27;;;;;;;0.15;81.58;98060.03;1726966;82;21135;-84
2022/02/27 05:40:43;;;;;;;68.52;42.62;;;;;;;0.14;81.59;98069.42;1713268;83;21075;-84
2022/02/27 05:43:09;;;;;;;63.63;38.85;;;;;;;0.11;81.73;98077.25;1733962;81;21366;-84
2022/02/27 05:45:35;;;;;;;63.25;39.33;;;;;;;0.08;81.66;98081.24;1737812;81;21014;-84
2022/02/27 05:48:01;;;;;;;64.82;42.53;;;;;;;0.06;81.67;98078.39;1735471;81;20996;-83
2022/02/27 05:50:26;;;;;;;68.62;42.90;;;;;;;0.02;81.69;98079.00;1726077;82;21480;-84
2022/02/27 05:52:52;;;;;;;62.88;39.63;;;;;;;0.01;81.91;98076.07;1726351;81;20990;-84
2022/02/27 05:55:18;;;;;;;62.27;38.80;;;;;;;0.02;81.71;98084.11;1727730;81;21051;-84
2022/02/27 05:57:43;;;;;;;71.20;45.05;;;;;;;-0.01;81.64;98085.06;1741720;81;21385;-84
2022/02/27 06:00:10;;;;;;;69.15;44.50;;;;;;;-0.03;81.67;98084.77;1734717;81;21030;-83
2022/02/27 06:02:36;;;;;;;73.28;46.05;;;;;;;-0.05;81.79;98087.39;1726776;81;20995;-83
2022/02/27 06:05:01;;;;;;;73.78;44.67;;;;;;;-0.05;81.95;98091.68;1730899;83;22024;-84
2022/02/27 06:07:27;;;;;;;68.30;43.98;;;;;;;-0.04;81.93;98095.44;1735658;82;20946;-84
2022/02/27 06:09:53;;;;;;;70.70;45.92;;;;;;;-0.02;81.83;98093.63;1751590;81;21024;-84
2022/02/27 06:12:18;;;;;;;71.22;46.05;;;;;;;0.00;81.96;98098.70;1746501;81;20962;-84
2022/02/27 06:14:45;;;;;;;68.70;45.92;;;;;;;0.01;81.99;98096.97;1736640;81;21073;-84
2022/02/27 06:17:11;;;;;;;71.95;43.98;;;;;;;0.03;82.22;98101.55;1708804;82;21516;-84
2022/02/27 06:19:37;;;;;;;73.87;46.88;;;;;;;0.04;82.33;98095.53;1719624;81;20986;-84
2022/02/27 06:22:03;;;;;;;75.32;47.17;;;;;;;0.03;82.32;98102.38;1702942;83;21002;-84
2022/02/27 06:24:29;;;;;;;69.97;44.45;;;;;;;-0.01;82.30;98106.78;1725049;81;21011;-84
2022/02/27 06:26:54;;;;;;;71.82;43.52;;;;;;;-0.01;82.34;98109.34;1716673;81;21007;-84
2022/02/27 06:29:20;;;;;;;70.22;43.63;;;;;;;-0.02;82.39;98108.97;1714292;81;21007;-84
2022/02/27 06:31:46;;;;;;;73.12;45.45;;;;;;;-0.02;82.46;98114.08;1725012;81;21421;-84
2022/02/27 06:34:13;;;;;;;70.95;43.90;;;;;;;0.01;82.56;98116.13;1709190;81;20995;-84
2022/02/27 06:36:39;;;;;;;70.20;43.40;;;;;;;0.03;82.55;98117.71;1703998;81;20998;-84
2022/02/27 06:39:04;;;;;;;66.92;44.05;;;;;;;0.06;82.58;98125.22;1737073;81;21389;-84
2022/02/27 06:41:30;;;;;;;68.25;43.17;;;;;;;0.04;82.56;98130.86;1745637;81;20982;-84
2022/02/27 06:43:56;;;;;;;72.50;42.78;;;;;;;0.03;82.57;98129.21;1736440;81;21013;-83
2022/02/27 06:46:21;;;;;;;66.12;43.58;;;;;;;0.03;82.54;98130.48;1733743;81;20954;-84
2022/02/27 06:48:47;;;;;;;71.30;44.75;;;;;;;0.06;82.53;98131.61;1729015;81;20993;-84
2022/02/27 06:51:13;;;;;;;70.35;44.33;;;;;;;0.09;82.60;98126.80;1731175;81;21015;-84
2022/02/27 06:53:39;;;;;;;68.78;44.50;;;;;;;0.04;82.45;98136.43;1717001;81;22319;-84
2022/02/27 06:56:05;;;;;;;67.08;41.45;;;;;;;0.05;82.63;98129.96;1719526;81;20938;-84
2022/02/27 06:58:31;;;;;;;67.12;44.88;;;;;;;-0.01;82.46;98137.91;1714896;81;20963;-84
2022/02/27 07:00:57;;;;;;;67.82;44.35;;;;;;;-0.07;82.62;98147.98;1712843;81;20997;-83
2022/02/27 07:03:23;;;;;;;67.08;44.95;;;;;;;-0.05;82.71;98151.28;1709717;81;21445;-84
2022/02/27 07:05:49;;;;;;;75.25;44.60;;;;;;;-0.09;82.66;98156.17;1711861;82;21016;-84
2022/02/27 07:08:14;;;;;;;74.70;43.38;;;;;;;-0.08;82.84;98153.16;1698082;82;21010;-83
2022/02/27 07:10:40;;;;;;;69.40;42.48;;;;;;;-0.06;82.94;98152.64;1709410;82;20879;-84
2022/02/27 07:13:06;;;;;;;66.80;41.68;;;;;;;-0.02;82.96;98156.24;1701892;81;20918;-84
2022/02/27 07:15:32;;;;;;;67.60;45.20;;;;;;;0.04;82.85;98149.20;1708507;81;21016;-84
2022/02/27 07:18:00;;;;;;;49.03;29.32;;;;;;;0.08;82.85;98159.20;1700013;82;21014;-84
2022/02/27 07:20:27;;;;;;;61.90;38.83;;;;;;;0.07;83.14;98154.16;1701083;82;21044;-83
2022/02/27 07:22:52;;;;;;;58.17;39.18;;;;;;;0.01;82.89;98152.73;1722112;82;21023;-84
2022/02/27 07:25:18;;;;;;;70.05;40.88;;;;;;;0.03;83.08;98153.94;1733700;81;21046;-84
2022/02/27 07:27:44;;;;;;;71.25;41.18;;;;;;;0.06;83.13;98158.91;1745697;82;21432;-84
2022/02/27 07:30:11;;;;;;;66.80;41.18;;;;;;;0.13;83.25;98157.24;1726834;82;21083;-84
2022/02/27 07:32:36;;;;;;;61.85;38.23;;;;;;;0.20;83.18;98161.17;1729991;82;21008;-83
2022/02/27 07:35:03;;;;;;;60.08;38.28;;;;;;;0.00;83.04;98125.53;1723410;82;21363;-84
2022/02/27 07:37:30;;;;;;;61.18;36.58;;;;;;;0.25;83.03;98160.95;1739189;82;20990;-84
2022/02/27 07:39:55;;;;;;;52.85;31.97;;;;;;;0.34;83.18;98159.23;1725287;81;21341;-83
2022/02/27 07:42:21;;;;;;;55.00;34.65;;;;;;;0.44;82.93;98155.75;1746928;81;21559;-84
2022/02/27 07:44:47;;;;;;;47.35;30.30;;;;;;;0.47;82.71;98160.26;1725157;82;20967;-83
2022/02/27 07:47:13;;;;;;;49.90;31.65;;;;;;;0.53;82.43;98159.15;1706796;82;21013;-83
2022/02/27 07:49:39;;;;;;;50.63;31.70;;;;;;;0.61;82.48;98157.02;1725230;82;21001;-83
2022/02/27 07:52:05;;;;;;;50.75;33.13;;;;;;;0.69;82.36;98155.38;1726198;82;21047;-84
2022/02/27 07:54:31;;;;;;;58.02;34.60;;;;;;;0.75;82.29;98159.72;1750880;81;20983;-83
2022/02/27 07:56:57;;;;;;;62.90;39.75;;;;;;;0.77;82.33;98156.63;1745387;81;20958;-83
2022/02/27 07:59:22;;;;;;;60.03;37.70;;;;;;;0.81;82.36;98160.70;1739371;82;21014;-84
2022/02/27 08:01:48;;;;;;;67.72;43.95;;;;;;;0.81;82.35;98163.27;1723564;83;21071;-84
2022/02/27 08:04:15;;;;;;;60.40;41.25;;;;;;;0.81;82.37;98163.27;1723280;82;21051;-84
2022/02/27 08:06:41;;;;;;;68.62;43.45;;;;;;;0.81;82.45;98157.30;1733266;81;20999;-84
2022/02/27 08:09:07;;;;;;;70.03;44.58;;;;;;;0.83;82.54;98165.29;1709789;83;21372;-84
2022/02/27 08:11:33;;;;;;;70.25;47.33;;;;;;;0.85;82.46;98172.44;1705632;83;21035;-84
2022/02/27 08:13:59;;;;;;;66.17;44.20;;;;;;;0.87;82.35;98162.12;1686648;83;21458;-83
2022/02/27 08:16:25;;;;;;;63.87;40.25;;;;;;;0.91;82.34;98162.33;1693713;84;21031;-84
2022/02/27 08:18:52;;;;;;;59.77;38.40;;;;;;;0.93;82.10;98159.23;1687540;84;21070;-84
2022/02/27 08:21:19;;;;;;;63.68;39.42;;;;;;;0.95;82.10;98155.31;1729369;82;21341;-84
2022/02/27 08:23:45;;;;;;;72.00;43.23;;;;;;;1.05;82.16;98158.61;1744086;82;21397;-84
2022/02/27 08:26:11;;;;;;;63.60;40.12;;;;;;;1.10;81.97;98159.64;1727221;82;21037;-84
2022/02/27 08:28:37;;;;;;;60.03;39.20;;;;;;;1.15;81.97;98159.80;1721419;82;21100;-83
2022/02/27 08:31:03;;;;;;;53.15;34.63;;;;;;;1.30;82.10;98154.75;1727724;82;22040;-83
2022/02/27 08:33:28;;;;;;;55.33;35.83;;;;;;;1.38;81.63;98154.73;1727929;82;21012;-84
2022/02/27 08:35:57;;;;;;;46.73;30.80;;;;;;;1.45;81.54;98152.66;1733365;81;21018;-84
2022/02/27 08:38:23;;;;;;;38.53;25.48;;;;;;;1.54;81.23;98156.48;1721991;82;21018;-84
2022/02/27 08:40:50;;;;;;;45.88;28.00;;;;;;;1.57;80.54;98155.03;1719876;81;21674;-84
2022/02/27 08:43:17;;;;;;;60.85;39.90;;;;;;;1.65;81.16;98160.12;1725611;82;21359;-83
2022/02/27 08:45:43;;;;;;;64.00;39.67;;;;;;;1.70;80.95;98159.42;1726131;83;20955;-84
2022/02/27 08:48:08;;;;;;;61.50;41.73;;;;;;;1.70;80.34;98158.13;1726265;83;20976;-83
2022/02/27 08:50:34;;;;;;;67.03;43.68;;;;;;;1.71;80.67;98159.78;1726132;83;20985;-84
2022/02/27 08:53:00;;;;;;;66.20;41.10;;;;;;;1.71;80.86;98157.68;1726003;83;20991;-84
2022/02/27 08:55:25;;;;;;;71.33;42.17;;;;;;;1.70;80.51;98151.73;1726150;83;20964;-84
2022/02/27 08:57:52;;;;;;;68.35;44.77;;;;;;;1.71;80.90;98166.19;1725430;83;21027;-84
2022/02/27 09:00:18;;;;;;;68.50;39.63;;;;;;;1.73;81.04;98157.96;1726017;83;21061;-85
2022/02/27 09:02:45;;;;;;;63.05;41.05;;;;;;;1.78;80.81;98163.66;1726028;82;21027;-84
2022/02/27 09:05:11;;;;;;;66.72;39.67;;;;;;;1.80;80.65;98154.63;1725857;83;21311;-84
2022/02/27 09:07:37;;;;;;;63.05;38.13;;;;;;;1.82;81.08;98160.95;1726102;83;21014;-83
2022/02/27 09:10:04;;;;;;;61.68;37.08;;;;;;;1.81;80.64;98155.00;1726020;83;21137;-84
2022/02/27 09:12:29;;;;;;;46.58;28.20;;;;;;;1.84;80.56;98156.11;1726128;83;20988;-83
2022/02/27 09:14:56;;;;;;;55.52;36.00;;;;;;;1.90;80.64;98164.73;1725931;83;21050;-84
2022/02/27 09:17:22;;;;;;;55.92;36.65;;;;;;;1.99;80.83;98157.00;1726007;83;21013;-84
2022/02/27 09:19:49;;;;;;;51.85;32.42;;;;;;;2.05;80.59;98161.32;1727172;83;21039;-84
2022/02/27 09:22:15;;;;;;;50.98;33.10;;;;;;;2.13;80.06;98167.32;1728400;83;21389;-82
2022/02/27 09:24:41;;;;;;;51.20;33.65;;;;;;;2.13;80.04;98168.60;1728157;83;21010;-83
2022/02/27 09:27:07;;;;;;;56.28;36.42;;;;;;;2.17;79.84;98168.80;1728579;83;21346;-83
2022/02/27 09:29:32;;;;;;;50.10;34.60;;;;;;;2.17;79.69;98173.09;1728497;83;21002;-83
2022/02/27 09:31:58;;;;;;;47.03;32.05;;;;;;;2.21;80.06;98157.44;1728209;83;21066;-82
2022/02/27 09:34:24;;;;;;;48.33;31.70;;;;;;;2.25;79.64;98167.06;1728661;83;21003;-83
2022/02/27 09:36:50;;;;;;;43.30;26.87;;;;;;;2.27;79.68;98176.78;1728665;82;21330;-83
2022/02/27 09:39:15;;;;;;;52.27;35.48;;;;;;;2.23;79.10;98169.72;1728628;83;21075;-83
2022/02/27 09:41:41;;;;;;;49.00;31.52;;;;;;;2.20;79.33;98172.92;1728447;83;21050;-83
2022/02/27 09:44:08;;;;;;;39.58;28.17;;;;;;;2.23;79.36;98174.84;1728854;83;21342;-83
2022/02/27 09:46:37;;;;;;;39.90;27.82;;;;;;;2.32;78.99;98169.67;1728281;83;21421;-82
2022/02/27 09:49:03;;;;;;;40.17;28.10;;;;;;;2.33;78.93;98162.34;1728580;83;20999;-83
2022/02/27 09:51:29;;;;;;;39.67;25.12;;;;;;;2.43;78.93;98168.59;1728458;83;20992;-83
2022/02/27 09:53:55;;;;;;;40.73;26.82;;;;;;;2.45;78.41;98158.27;1728521;83;21417;-83
2022/02/27 09:56:21;;;;;;;42.45;29.70;;;;;;;2.47;78.62;98162.39;1728532;83;21019;-83
2022/02/27 09:58:46;;;;;;;37.33;25.57;;;;;;;2.60;78.30;98163.77;1728522;83;20995;-83
2022/02/27 10:01:14;;;;;;;32.42;22.80;;;;;;;2.70;77.87;98168.75;1728553;83;21766;-83
2022/02/27 10:03:40;;;;;;;25.97;17.35;;;;;;;2.79;77.62;98164.37;1728669;83;21007;-83
2022/02/27 10:06:08;;;;;;;26.62;17.40;;;;;;;2.88;76.03;98165.10;1728487;83;21370;-83
2022/02/27 10:08:51;;;;;;;25.45;17.10;;;;;;;2.95;77.07;98157.42;1728461;83;21066;-83
2022/02/27 10:11:18;;;;;;;18.48;13.93;;;;;;;3.09;76.90;98156.61;1711471;83;21133;-83
2022/02/27 10:13:51;;;;;;;19.30;13.95;;;;;;;3.16;75.50;98145.49;1728421;82;20991;-83
2022/02/27 10:16:19;;;;;;;23.05;16.50;;;;;;;3.26;75.50;98147.42;1728466;83;21364;-82
2022/02/27 10:18:54;;;;;;;20.88;13.62;;;;;;;3.33;75.10;98154.28;1725530;83;21393;-83
2022/02/27 10:21:41;;;;;;;28.92;20.25;;;;;;;3.38;75.02;98140.69;1689118;85;20999;-83
2022/02/27 10:24:10;;;;;;;26.25;20.48;;;;;;;3.39;74.13;98145.37;1687842;85;21059;-83
2022/02/27 10:26:38;;;;;;;26.73;19.15;;;;;;;3.35;74.83;98155.02;1688791;85;21074;-83
2022/02/27 10:29:15;;;;;;;28.25;19.25;;;;;;;3.39;74.42;98150.51;1686846;83;21070;-83
2022/02/27 10:31:53;;;;;;;26.50;19.65;;;;;;;3.34;73.67;98131.98;1688656;85;21488;-83
2022/02/27 10:34:30;;;;;;;24.85;17.92;;;;;;;3.40;74.55;98152.16;1688214;85;21022;-83
2022/02/27 10:37:08;;;;;;;18.12;13.68;;;;;;;3.40;74.15;98145.73;1688603;85;21050;-83
2022/02/27 10:39:45;;;;;;;15.75;10.30;;;;;;;3.43;73.29;98139.14;1689169;85;21500;-82
2022/02/27 10:42:30;;;;;;;15.23;11.50;;;;;;;3.41;72.18;98143.52;1689089;85;20999;-83
2022/02/27 10:45:05;;;;;;;13.62;9.80;;;;;;;3.31;72.17;98142.82;1688562;85;21034;-83
2022/02/27 10:47:35;;;;;;;16.07;10.38;;;;;;;3.19;70.49;98135.85;1689022;85;21342;-83
2022/02/27 10:50:11;;;;;;;18.52;11.10;;;;;;;3.22;71.57;98128.41;1689059;85;21378;-83
2022/02/27 10:52:44;;;;;;;14.03;9.85;;;;;;;3.24;71.68;98114.55;1688842;85;21042;-83
2022/02/27 10:55:09;;;;;;;14.90;9.68;;;;;;;3.36;71.62;98109.13;1670001;85;21023;-83
2022/02/27 10:57:50;;;;;;;11.57;8.83;;;;;;;3.50;71.37;98108.28;1689022;85;21528;-83
2022/02/27 11:00:32;;;;;;;10.32;7.17;;;;;;;3.65;71.05;98108.61;1688975;85;21003;-83
2022/02/27 11:03:07;;;;;;;12.65;9.18;;;;;;;3.74;68.51;98109.33;1689075;85;21185;-83
2022/02/27 11:05:35;;;;;;;9.20;7.05;;;;;;;3.76;68.58;98101.05;1689075;85;21530;-83
2022/02/27 11:08:05;;;;;;;11.28;7.53;;;;;;;3.78;67.11;98100.95;1688953;85;21055;-83
2022/02/27 11:15:42;;;;;;;10.60;7.58;;;;;;;4.01;67.10;98086.14;1758532;77;21167;-83
2022/02/27 11:18:08;;;;;;;13.43;8.93;;;;;;;4.16;66.55;98089.47;1742489;82;21084;-83
2022/02/27 11:28:09;;;;;;;11.40;7.40;;;;;;;4.31;65.51;98090.22;1742361;82;21071;-83
2022/02/27 11:30:52;;;;;;;10.72;7.80;;;;;;;4.30;63.54;98086.83;1742412;82;21000;-83
2022/02/27 11:33:20;;;;;;;14.53;8.90;;;;;;;4.23;63.76;98077.88;1745971;82;21372;-83
2022/02/27 11:47:11;;;;;;;11.03;7.75;;;;;;;3.57;64.93;98073.55;1599324;88;21048;-83
2022/02/27 11:49:44;;;;;;;10.15;6.47;;;;;;;3.43;63.79;98077.47;1625778;88;21143;-83
2022/02/27 11:52:13;;;;;;;10.75;7.05;;;;;;;3.35;64.50;98071.51;1637957;85;21535;-83